createdAt,value
2016-10-31T09:34:43.296Z,101885
2016-10-31T09:37:14.039Z,101890
2016-10-31T09:38:17.568Z,101888
2016-10-31T09:43:52.898Z,101897
2016-10-31T09:51:35.789Z,101902
2016-10-31T09:52:39.320Z,101902
2016-10-31T09:53:42.918Z,101903
2016-10-31T09:54:46.444Z,101903
2016-10-31T09:55:49.960Z,101892
2016-10-31T09:56:55.555Z,101902
2016-10-31T09:57:59.092Z,101904
2016-10-31T09:59:02.623Z,101903
2016-10-31T10:00:06.155Z,101899
2016-10-31T10:01:09.699Z,101908
2016-10-31T10:02:13.302Z,101899
2016-10-31T10:03:16.833Z,101896
2016-10-31T10:04:20.413Z,101893
2016-10-31T10:05:24.051Z,101888
2016-10-31T10:06:27.605Z,101896
2016-10-31T10:07:31.130Z,101879
2016-10-31T10:08:34.651Z,101896
2016-10-31T10:09:38.189Z,101890
2016-10-31T10:10:41.712Z,101884
2016-10-31T10:11:45.243Z,101881
2016-10-31T10:12:48.764Z,101887
2016-10-31T10:13:52.301Z,101884
2016-10-31T10:14:55.826Z,101884
2016-10-31T10:15:59.351Z,101890
2016-10-31T10:17:02.868Z,101887
2016-10-31T10:18:06.405Z,101878
2016-10-31T10:19:09.933Z,101884
2016-10-31T10:20:13.469Z,101887
2016-10-31T10:21:16.982Z,101881
2016-10-31T10:22:20.513Z,101884
2016-10-31T10:23:24.039Z,101862
2016-10-31T10:24:27.582Z,101870
2016-10-31T10:25:31.104Z,101878
2016-10-31T10:26:35.176Z,101872
2016-10-31T10:27:38.522Z,101861
2016-10-31T10:28:41.967Z,101872
2016-10-31T10:29:45.494Z,101864
2016-10-31T10:30:49.026Z,101870
2016-10-31T10:31:52.551Z,101875
2016-10-31T10:32:56.079Z,101872
2016-10-31T10:34:33.586Z,101870
2016-10-31T10:35:37.187Z,101870
2016-10-31T10:36:40.717Z,101872
2016-10-31T10:37:44.244Z,101865
2016-10-31T10:38:47.992Z,101870
2016-10-31T10:39:51.743Z,101872
2016-10-31T10:40:55.278Z,101865
2016-10-31T10:41:58.801Z,101872
2016-10-31T10:43:02.327Z,101872
2016-10-31T10:44:05.848Z,101872
2016-10-31T10:45:09.378Z,101875
2016-10-31T10:46:12.896Z,101875
2016-10-31T10:47:16.429Z,101872
2016-10-31T10:48:19.961Z,101870
2016-10-31T10:49:23.768Z,101878
2016-10-31T10:50:27.287Z,101873
2016-10-31T10:51:30.835Z,101865
2016-10-31T10:52:34.364Z,101873
2016-10-31T10:53:37.886Z,101870
2016-10-31T10:54:41.405Z,101876
2016-10-31T10:55:44.944Z,101869
2016-10-31T10:56:48.466Z,101874
